Time;durP1;ratioP1;P1;durP2;ratioP2;P2;SDS_P1;SDS_P2;PMS_P1;PMS_P2;Temp;Humidity;BMP_temperature;BMP_pressure;BME280_temperature;BME280_humidity;BME280_pressure;Samples;Min_cycle;Max_cycle;Signal;HPM_P1;HPM_P2
2024/03/05 00:00:58;;;;;;;26.27;13.73;;;5.30;99.90;;;;;;4159326;28;20099;-61
2024/03/05 00:02:59;;;;;;;31.10;14.27;;;5.30;99.90;;;;;;4160593;28;20041;-65
2024/03/05 00:05:03;;;;;;;23.47;13.73;;;5.20;99.90;;;;;;4161382;28;20086;-65
2024/03/05 00:07:04;;;;;;;25.53;13.90;;;5.00;99.90;;;;;;4163185;28;20104;-64
2024/03/05 00:09:05;;;;;;;24.20;12.47;;;4.90;99.90;;;;;;4162134;28;20171;-65
2024/03/05 00:11:07;;;;;;;25.87;14.33;;;4.80;99.90;;;;;;4162957;28;20072;-62
2024/03/05 00:13:09;;;;;;;23.70;14.13;;;4.70;99.90;;;;;;4162862;28;20381;-65
2024/03/05 00:15:10;;;;;;;31.23;14.13;;;4.70;99.90;;;;;;4161482;28;20096;-60
2024/03/05 00:17:12;;;;;;;22.73;12.90;;;4.60;99.90;;;;;;4161879;28;20436;-60
2024/03/05 00:19:14;;;;;;;27.80;15.33;;;4.60;99.90;;;;;;4161821;28;20030;-63
2024/03/05 00:21:15;;;;;;;25.00;13.87;;;4.60;99.90;;;;;;4163175;28;20275;-63
2024/03/05 00:23:16;;;;;;;25.63;14.70;;;4.60;99.90;;;;;;4161675;28;20270;-60
2024/03/05 00:25:18;;;;;;;27.50;13.73;;;4.50;99.90;;;;;;4162831;28;20734;-61
2024/03/05 00:27:19;;;;;;;29.63;13.97;;;4.60;99.90;;;;;;4161634;28;20291;-61
2024/03/05 00:29:21;;;;;;;23.93;13.67;;;4.50;99.90;;;;;;4162980;28;20068;-62
2024/03/05 00:31:22;;;;;;;24.57;13.73;;;4.50;99.90;;;;;;4161719;28;20372;-63
2024/03/05 00:33:24;;;;;;;26.00;14.80;;;4.50;99.90;;;;;;4162389;28;20068;-63
2024/03/05 00:35:26;;;;;;;30.57;14.93;;;4.50;99.90;;;;;;4161899;28;20312;-63
2024/03/05 00:37:27;;;;;;;26.87;15.00;;;4.40;99.90;;;;;;4162764;28;21805;-60
2024/03/05 00:39:28;;;;;;;29.83;15.07;;;4.50;99.90;;;;;;4161630;28;20259;-61
2024/03/05 00:41:29;;;;;;;31.47;16.47;;;4.50;99.90;;;;;;4162747;28;20275;-58
2024/03/05 00:43:30;;;;;;;33.63;16.43;;;4.50;99.90;;;;;;4161618;28;20014;-60
2024/03/05 00:45:32;;;;;;;34.93;16.60;;;4.50;99.90;;;;;;4160982;28;20271;-63
2024/03/05 00:47:34;;;;;;;30.03;17.17;;;4.50;99.90;;;;;;4162851;28;20278;-63
2024/03/05 00:49:35;;;;;;;29.60;17.07;;;4.50;99.90;;;;;;4162231;28;20732;-63
2024/03/05 00:51:36;;;;;;;32.60;18.07;;;4.50;99.90;;;;;;4162758;28;20095;-64
2024/03/05 00:53:38;;;;;;;43.03;19.53;;;4.40;99.90;;;;;;4161779;28;20033;-65
2024/03/05 00:55:39;;;;;;;35.83;18.80;;;4.40;99.90;;;;;;4162226;28;20266;-64
2024/03/05 00:57:41;;;;;;;32.07;18.07;;;4.40;99.90;;;;;;4160718;28;20869;-64
2024/03/05 00:59:43;;;;;;;37.10;18.10;;;4.40;99.90;;;;;;4162632;28;20030;-63
2024/03/05 01:01:44;;;;;;;36.63;18.93;;;4.40;99.90;;;;;;4160907;28;21051;-61
2024/03/05 01:03:47;;;;;;;41.57;19.93;;;4.40;99.90;;;;;;4162978;28;20274;-59
2024/03/05 01:05:48;;;;;;;31.67;19.30;;;4.40;99.90;;;;;;4160931;28;20632;-66
2024/03/05 01:07:50;;;;;;;43.83;18.20;;;4.40;99.90;;;;;;4162077;28;20282;-66
2024/03/05 01:09:51;;;;;;;39.40;20.93;;;4.30;99.90;;;;;;4161422;28;20259;-65
2024/03/05 01:11:52;;;;;;;36.97;20.00;;;4.30;99.90;;;;;;4161553;28;20274;-66
2024/03/05 01:13:54;;;;;;;32.03;16.17;;;4.20;99.90;;;;;;4161967;28;20254;-65
2024/03/05 01:15:56;;;;;;;32.90;16.10;;;4.20;99.90;;;;;;4161228;28;20263;-63
2024/03/05 01:17:58;;;;;;;33.80;17.17;;;4.20;99.90;;;;;;4161652;28;20300;-62
2024/03/05 01:19:59;;;;;;;30.43;16.33;;;4.30;99.90;;;;;;4160923;28;20270;-64
2024/03/05 01:22:01;;;;;;;32.70;16.30;;;4.20;99.90;;;;;;4162005;28;20309;-64
2024/03/05 01:24:02;;;;;;;32.93;17.87;;;4.20;99.90;;;;;;4161541;28;20305;-63
2024/03/05 01:26:03;;;;;;;31.67;17.13;;;4.20;99.90;;;;;;4161715;28;20360;-64
2024/03/05 01:28:07;;;;;;;29.27;16.73;;;4.20;99.90;;;;;;4160643;28;20723;-61
2024/03/05 01:30:13;;;;;;;36.80;19.53;;;4.20;99.90;;;;;;4161873;28;20279;-64
2024/03/05 01:32:14;;;;;;;33.73;18.53;;;4.20;99.90;;;;;;4160197;28;20804;-64
2024/03/05 01:34:16;;;;;;;38.23;17.57;;;4.20;99.90;;;;;;4161753;28;20271;-64
2024/03/05 01:36:19;;;;;;;31.17;17.30;;;4.20;99.90;;;;;;4160565;28;20380;-65
2024/03/05 01:38:21;;;;;;;36.30;18.70;;;4.20;99.90;;;;;;4162357;28;20317;-61
2024/03/05 01:40:22;;;;;;;34.67;17.37;;;4.20;99.90;;;;;;4160811;28;20267;-64
2024/03/05 01:42:23;;;;;;;34.03;17.10;;;4.20;99.90;;;;;;4162679;28;20291;-66
2024/03/05 01:44:24;;;;;;;29.53;16.03;;;4.20;99.90;;;;;;4161307;28;20265;-64
2024/03/05 01:46:26;;;;;;;32.17;16.00;;;4.10;99.90;;;;;;4161354;28;20701;-64
2024/03/05 01:48:29;;;;;;;31.97;16.17;;;4.10;99.90;;;;;;4160932;28;20767;-59
2024/03/05 01:50:35;;;;;;;28.47;15.73;;;4.00;99.90;;;;;;4160927;28;20263;-61
2024/03/05 01:52:37;;;;;;;28.07;15.77;;;3.80;99.90;;;;;;4160820;28;20290;-61
2024/03/05 01:54:38;;;;;;;27.23;14.73;;;3.70;99.90;;;;;;4160879;28;20271;-65
2024/03/05 01:56:46;;;;;;;31.33;15.57;;;3.60;99.90;;;;;;4161079;28;20275;-65
2024/03/05 01:58:47;;;;;;;31.17;14.90;;;3.50;99.90;;;;;;4159774;28;20321;-65
2024/03/05 02:00:49;;;;;;;25.77;14.17;;;3.40;99.90;;;;;;4161765;28;20604;-62
2024/03/05 02:02:50;;;;;;;35.30;16.50;;;3.40;99.90;;;;;;4160879;28;20740;-61
2024/03/05 02:04:52;;;;;;;27.97;14.87;;;3.40;99.90;;;;;;4161219;28;20262;-65
2024/03/05 02:06:56;;;;;;;31.63;15.27;;;3.40;99.90;;;;;;4159158;28;20693;-62
2024/03/05 02:09:00;;;;;;;29.10;15.30;;;3.40;99.90;;;;;;4160456;28;20320;-63
2024/03/05 02:11:02;;;;;;;26.73;14.80;;;3.40;99.90;;;;;;4160900;28;20324;-64
2024/03/05 02:13:04;;;;;;;32.80;15.93;;;3.40;99.90;;;;;;4162069;28;20274;-65
2024/03/05 02:15:05;;;;;;;33.33;15.83;;;3.40;99.90;;;;;;4159437;28;20274;-64
2024/03/05 02:17:07;;;;;;;31.43;17.17;;;3.40;99.90;;;;;;4161114;28;20348;-66
2024/03/05 02:19:11;;;;;;;31.47;16.50;;;3.50;99.90;;;;;;4160199;28;20279;-64
2024/03/05 02:21:20;;;;;;;30.80;17.43;;;3.50;99.90;;;;;;4161716;28;20781;-65
2024/03/05 02:23:22;;;;;;;31.57;17.03;;;3.50;99.90;;;;;;4160619;28;20305;-64
2024/03/05 02:25:23;;;;;;;31.97;15.97;;;3.50;99.90;;;;;;4160650;28;20275;-66
2024/03/05 02:27:24;;;;;;;35.00;17.87;;;3.50;99.90;;;;;;4159688;28;20291;-64
2024/03/05 02:29:25;;;;;;;30.93;15.83;;;3.50;99.90;;;;;;4160101;28;20828;-65
2024/03/05 02:31:27;;;;;;;40.70;16.07;;;3.50;99.90;;;;;;4160759;28;20687;-63
2024/03/05 02:33:29;;;;;;;29.57;15.37;;;3.50;99.90;;;;;;4160151;28;20274;-66
2024/03/05 02:35:30;;;;;;;29.87;15.33;;;3.50;99.90;;;;;;4160492;28;20305;-64
2024/03/05 02:37:31;;;;;;;35.17;16.70;;;3.40;99.90;;;;;;4159790;28;20289;-62
2024/03/05 02:39:33;;;;;;;37.17;17.10;;;3.40;99.90;;;;;;4161719;28;20817;-65
2024/03/05 02:41:34;;;;;;;30.70;16.87;;;3.30;99.90;;;;;;4160419;28;20755;-66
2024/03/05 02:43:36;;;;;;;33.53;17.03;;;3.30;99.90;;;;;;4160716;28;20274;-63
2024/03/05 02:45:37;;;;;;;31.97;16.53;;;3.30;99.90;;;;;;4159376;28;20287;-62
2024/03/05 02:47:42;;;;;;;32.80;17.40;;;3.20;99.90;;;;;;4161181;28;20353;-63
2024/03/05 02:49:43;;;;;;;28.53;15.63;;;3.20;99.90;;;;;;4160329;28;20340;-63
2024/03/05 02:51:46;;;;;;;35.20;18.30;;;3.10;99.90;;;;;;4160768;28;20332;-63
2024/03/05 02:53:47;;;;;;;33.37;16.83;;;3.10;99.90;;;;;;4160218;28;20698;-66
2024/03/05 02:55:49;;;;;;;29.47;15.03;;;3.10;99.90;;;;;;4160720;28;20341;-65
2024/03/05 02:57:51;;;;;;;34.03;17.13;;;3.10;99.90;;;;;;4159211;28;20737;-60
2024/03/05 02:59:52;;;;;;;30.50;15.17;;;3.00;99.90;;;;;;4160484;28;20305;-65
2024/03/05 03:01:53;;;;;;;33.50;15.83;;;3.00;99.90;;;;;;4160358;28;20271;-65
2024/03/05 03:03:55;;;;;;;32.43;15.43;;;2.90;99.90;;;;;;4160657;28;20813;-64
2024/03/05 03:05:56;;;;;;;31.93;15.13;;;2.90;99.90;;;;;;4160640;28;20270;-63
2024/03/05 03:07:58;;;;;;;27.67;14.43;;;2.90;99.90;;;;;;4160218;28;20291;-63
2024/03/05 03:09:59;;;;;;;30.00;15.07;;;2.90;99.90;;;;;;4161035;28;20267;-65
2024/03/05 03:12:01;;;;;;;28.53;15.70;;;2.90;99.90;;;;;;4159876;28;20321;-65
2024/03/05 03:14:03;;;;;;;28.73;14.10;;;2.90;99.90;;;;;;4161006;28;20639;-66
2024/03/05 03:16:04;;;;;;;27.40;14.47;;;2.90;99.90;;;;;;4159812;28;20271;-66
2024/03/05 03:18:06;;;;;;;35.00;16.73;;;2.80;99.90;;;;;;4160228;28;21053;-61
2024/03/05 03:20:09;;;;;;;37.53;17.03;;;2.70;99.90;;;;;;4159769;28;21113;-59
2024/03/05 03:22:10;;;;;;;37.17;16.83;;;2.60;99.90;;;;;;4161037;28;20278;-59
2024/03/05 03:24:12;;;;;;;35.63;17.30;;;2.60;99.90;;;;;;4160230;28;20340;-64
2024/03/05 03:26:13;;;;;;;33.57;16.50;;;2.60;99.90;;;;;;4159635;28;20789;-66
2024/03/05 03:28:14;;;;;;;39.90;16.30;;;2.70;99.90;;;;;;4159372;28;20299;-59
2024/03/05 03:30:20;;;;;;;31.27;17.00;;;2.60;99.90;;;;;;4160170;28;20320;-65
2024/03/05 03:32:21;;;;;;;29.47;15.47;;;2.70;99.90;;;;;;4159263;28;20274;-65
2024/03/05 03:34:22;;;;;;;29.33;15.63;;;2.70;99.90;;;;;;4159109;28;20271;-62
2024/03/05 03:36:24;;;;;;;30.57;15.73;;;2.70;99.90;;;;;;4160410;28;20299;-61
2024/03/05 03:38:25;;;;;;;31.37;15.00;;;2.70;99.90;;;;;;4161899;28;20317;-64
2024/03/05 03:40:32;;;;;;;30.50;16.77;;;2.70;99.90;;;;;;4163946;28;20271;-65
2024/03/05 03:42:35;;;;;;;32.77;16.87;;;2.80;99.90;;;;;;4161892;28;20340;-57
2024/03/05 03:44:37;;;;;;;32.97;15.97;;;2.80;99.90;;;;;;4164139;28;20344;-62
2024/03/05 03:46:39;;;;;;;30.83;16.27;;;2.80;99.90;;;;;;4161314;28;20306;-64
2024/03/05 03:48:40;;;;;;;30.33;15.13;;;2.80;99.90;;;;;;4163503;28;20317;-65
2024/03/05 03:50:43;;;;;;;32.27;16.23;;;2.80;99.90;;;;;;4161958;28;20767;-63
2024/03/05 03:52:45;;;;;;;32.47;16.33;;;2.70;99.90;;;;;;4163113;28;20340;-65
2024/03/05 03:54:48;;;;;;;25.90;14.43;;;2.70;99.90;;;;;;4161783;28;20694;-65
2024/03/05 03:56:49;;;;;;;31.17;15.03;;;2.80;99.90;;;;;;4162569;28;20678;-65
2024/03/05 03:58:50;;;;;;;31.90;15.00;;;2.70;99.90;;;;;;4162945;28;20912;-65
2024/03/05 04:00:52;;;;;;;25.27;13.10;;;2.80;99.90;;;;;;4163058;28;20666;-65
2024/03/05 04:02:53;;;;;;;23.47;12.57;;;2.70;99.90;;;;;;4161679;28;20324;-64
2024/03/05 04:04:54;;;;;;;27.10;13.03;;;2.70;99.90;;;;;;4145568;28;20271;-66
2024/03/05 04:06:55;;;;;;;25.27;12.47;;;2.70;99.90;;;;;;4162520;28;20290;-65
2024/03/05 04:08:57;;;;;;;25.27;13.77;;;2.70;99.90;;;;;;4162097;28;20321;-66
2024/03/05 04:10:58;;;;;;;23.47;12.73;;;2.70;99.90;;;;;;4162253;28;20251;-64
2024/03/05 04:13:00;;;;;;;28.37;13.47;;;2.60;99.90;;;;;;4162576;28;20312;-65
2024/03/05 04:15:02;;;;;;;32.90;15.47;;;2.60;99.90;;;;;;4162475;28;20270;-59
2024/03/05 04:17:04;;;;;;;27.03;13.83;;;2.60;99.90;;;;;;4161467;28;20801;-55
2024/03/05 04:19:09;;;;;;;29.20;14.33;;;2.60;99.90;;;;;;4163372;28;20274;-64
2024/03/05 04:21:10;;;;;;;31.07;14.63;;;2.70;99.90;;;;;;4161291;28;20279;-60
2024/03/05 04:23:12;;;;;;;34.47;15.50;;;2.60;99.90;;;;;;4163190;28;20266;-61
2024/03/05 04:25:17;;;;;;;26.27;15.27;;;2.60;99.90;;;;;;4160457;28;20333;-63
2024/03/05 04:27:19;;;;;;;28.67;15.30;;;2.60;99.90;;;;;;4162255;28;20302;-63
2024/03/05 04:29:29;;;;;;;32.87;16.53;;;2.60;99.90;;;;;;4161609;28;20266;-60
2024/03/05 04:31:34;;;;;;;31.75;15.75;;;2.60;99.90;;;;;;4162705;28;20354;-61
2024/03/05 04:33:39;;;;;;;38.37;17.40;;;2.60;99.90;;;;;;4176372;28;20163;-58
2024/03/05 04:35:42;;;;;;;28.57;14.07;;;2.50;99.90;;;;;;4162480;28;20282;-64
2024/03/05 04:37:43;;;;;;;34.13;14.40;;;2.50;99.90;;;;;;4161638;28;20335;-64
2024/03/05 04:39:46;;;;;;;29.90;14.37;;;2.50;99.90;;;;;;4162199;28;20270;-62
2024/03/05 04:41:48;;;;;;;26.50;14.50;;;2.50;99.90;;;;;;4161030;28;20666;-63
2024/03/05 04:43:49;;;;;;;25.90;13.67;;;2.50;99.90;;;;;;4162827;28;20290;-63
2024/03/05 04:45:50;;;;;;;26.70;13.17;;;2.50;99.90;;;;;;4161485;28;20262;-61
2024/03/05 04:47:52;;;;;;;27.50;14.47;;;2.50;99.90;;;;;;4161909;28;20678;-61
2024/03/05 04:49:53;;;;;;;26.63;12.70;;;2.50;99.90;;;;;;4161471;28;20813;-65
2024/03/05 04:51:54;;;;;;;24.97;12.97;;;2.50;99.90;;;;;;4161893;28;20260;-60
2024/03/05 04:53:55;;;;;;;26.20;13.43;;;2.50;99.90;;;;;;4162279;28;20341;-63
2024/03/05 04:55:57;;;;;;;23.70;13.57;;;2.50;99.90;;;;;;4160787;28;20654;-57
2024/03/05 04:57:58;;;;;;;30.27;14.53;;;2.50;99.90;;;;;;4162464;28;20279;-60
2024/03/05 04:59:59;;;;;;;29.37;13.73;;;2.50;99.90;;;;;;4161244;28;20271;-56
2024/03/05 05:02:01;;;;;;;25.37;13.27;;;2.50;99.90;;;;;;4162701;28;20266;-62
2024/03/05 05:04:02;;;;;;;28.03;14.07;;;2.50;99.90;;;;;;4161149;28;20275;-64
2024/03/05 05:06:04;;;;;;;30.90;13.23;;;2.50;99.90;;;;;;4162272;28;20266;-62
2024/03/05 05:08:06;;;;;;;30.57;13.67;;;2.40;99.90;;;;;;4161186;28;20781;-54
2024/03/05 05:10:08;;;;;;;24.87;14.67;;;2.40;99.90;;;;;;4162133;28;20275;-65
2024/03/05 05:12:11;;;;;;;26.10;14.20;;;2.30;99.90;;;;;;4161379;28;20251;-64
2024/03/05 05:14:13;;;;;;;26.03;14.13;;;2.30;99.90;;;;;;4161399;28;20651;-63
2024/03/05 05:16:15;;;;;;;24.30;13.83;;;2.40;99.90;;;;;;4161242;28;20325;-64
2024/03/05 05:18:16;;;;;;;24.10;11.83;;;2.40;99.90;;;;;;4161319;28;20337;-63
2024/03/05 05:20:18;;;;;;;19.47;11.47;;;2.40;99.90;;;;;;4162355;28;20293;-60
2024/03/05 05:22:20;;;;;;;26.47;12.70;;;2.40;99.90;;;;;;4161687;28;20275;-64
2024/03/05 05:24:23;;;;;;;24.80;13.67;;;2.40;99.90;;;;;;4161588;28;20623;-57
2024/03/05 05:26:24;;;;;;;23.27;12.83;;;2.50;99.90;;;;;;4159681;28;20694;-60
2024/03/05 05:28:26;;;;;;;24.53;13.13;;;2.50;99.90;;;;;;4161130;28;20360;-61
2024/03/05 05:30:28;;;;;;;23.27;13.60;;;2.60;99.90;;;;;;4159586;28;20333;-56
2024/03/05 05:32:29;;;;;;;29.83;14.17;;;2.70;99.90;;;;;;4161849;28;20267;-52
2024/03/05 05:34:30;;;;;;;29.70;14.67;;;2.90;99.90;;;;;;4160750;28;20267;-55
2024/03/05 05:36:31;;;;;;;36.43;15.20;;;3.10;99.90;;;;;;4160911;28;20341;-60
2024/03/05 05:38:33;;;;;;;26.90;15.07;;;3.50;99.90;;;;;;4142145;28;20287;-59
2024/03/05 05:40:34;;;;;;;53.10;17.83;;;3.80;99.90;;;;;;4161878;28;20329;-60
2024/03/05 05:42:36;;;;;;;32.07;17.23;;;4.20;99.90;;;;;;4159324;28;20328;-61
2024/03/05 05:44:37;;;;;;;40.03;16.73;;;4.50;99.90;;;;;;4160243;28;20689;-61
2024/03/05 05:46:38;;;;;;;43.87;16.60;;;4.80;99.90;;;;;;4160733;28;20279;-59
2024/03/05 05:48:43;;;;;;;35.13;15.97;;;5.10;99.90;;;;;;4161622;28;20365;-57
2024/03/05 05:50:51;;;;;;;34.03;15.73;;;5.50;99.90;;;;;;4161015;28;20761;-57
2024/03/05 05:52:53;;;;;;;26.77;15.40;;;5.90;99.90;;;;;;4160757;28;20033;-61
2024/03/05 05:54:55;;;;;;;35.47;18.37;;;6.10;99.90;;;;;;4160641;28;20178;-59
2024/03/05 05:56:57;;;;;;;36.20;18.20;;;6.50;99.90;;;;;;4160477;28;20045;-60
2024/03/05 05:58:58;;;;;;;36.93;17.03;;;6.90;99.90;;;;;;4161023;28;20045;-56
2024/03/05 06:01:04;;;;;;;34.20;17.17;;;7.30;99.90;;;;;;4159067;28;20421;-60
2024/03/05 06:03:09;;;;;;;36.87;17.40;;;7.60;99.90;;;;;;4160872;28;20724;-60
2024/03/05 06:05:10;;;;;;;39.33;15.60;;;7.90;99.90;;;;;;4158604;28;20486;-61
2024/03/05 06:07:11;;;;;;;28.67;15.33;;;8.30;99.90;;;;;;4161069;28;20053;-63
2024/03/05 06:09:13;;;;;;;26.57;14.90;;;8.70;99.90;;;;;;4160634;28;20037;-56
2024/03/05 06:11:15;;;;;;;35.87;15.90;;;9.10;99.90;;;;;;4160524;28;20038;-58
2024/03/05 06:13:16;;;;;;;27.67;15.53;;;9.40;99.90;;;;;;4160332;28;20091;-58
2024/03/05 06:15:17;;;;;;;34.73;15.27;;;9.70;99.90;;;;;;4161048;28;20091;-60
2024/03/05 06:17:18;;;;;;;27.83;14.53;;;10.00;99.90;;;;;;4159597;28;20092;-62
2024/03/05 06:19:20;;;;;;;27.30;14.53;;;10.10;99.90;;;;;;4160713;28;20100;-60
2024/03/05 06:21:22;;;;;;;22.17;13.30;;;10.30;99.90;;;;;;4160187;28;20093;-62
2024/03/05 06:23:24;;;;;;;22.97;13.57;;;10.30;99.90;;;;;;4160013;28;20049;-60
2024/03/05 06:25:27;;;;;;;28.00;15.53;;;10.60;99.90;;;;;;4159317;28;20042;-59
2024/03/05 06:27:28;;;;;;;29.40;19.83;;;10.80;99.90;;;;;;4159833;28;20049;-59
2024/03/05 06:29:29;;;;;;;34.30;17.70;;;10.70;99.90;;;;;;4160785;28;20425;-60
2024/03/05 06:31:31;;;;;;;31.83;17.93;;;10.40;99.90;;;;;;4159593;28;20038;-63
2024/03/05 06:33:32;;;;;;;31.03;16.53;;;10.40;99.90;;;;;;4160444;28;20465;-62
2024/03/05 06:35:33;;;;;;;35.23;17.37;;;10.40;99.90;;;;;;4159580;28;20148;-60
2024/03/05 06:37:36;;;;;;;30.63;16.73;;;10.50;99.90;;;;;;4160194;28;20037;-60
2024/03/05 06:39:41;;;;;;;28.30;15.33;;;10.70;99.90;;;;;;4159088;28;20110;-60
2024/03/05 06:41:47;;;;;;;24.60;13.63;;;11.10;99.90;;;;;;4161209;28;20103;-63
2024/03/05 06:43:48;;;;;;;32.30;15.03;;;11.50;99.90;;;;;;4159190;28;20111;-60
2024/03/05 06:45:50;;;;;;;28.53;14.43;;;11.60;99.90;;;;;;4161442;28;20037;-58
2024/03/05 06:48:00;;;;;;;29.73;12.83;;;11.60;99.90;;;;;;4159138;28;20119;-60
2024/03/05 06:50:07;;;;;;;28.73;14.85;;;11.60;99.90;;;;;;4160842;28;20037;-58
2024/03/05 06:56:47;;;;;;;31.80;14.77;;;11.80;99.90;;;;;;4159803;28;20372;-63
2024/03/05 06:58:48;;;;;;;27.73;14.40;;;12.10;99.90;;;;;;4160338;28;20041;-60
2024/03/05 07:00:50;;;;;;;34.93;14.53;;;12.10;99.90;;;;;;4159995;28;20029;-57
2024/03/05 07:02:51;;;;;;;28.93;14.03;;;12.30;99.90;;;;;;4161072;28;20033;-63
2024/03/05 07:04:53;;;;;;;24.97;12.90;;;12.40;99.90;;;;;;4160198;28;20540;-63
2024/03/05 07:06:55;;;;;;;24.00;12.53;;;12.70;99.70;;;;;;4160329;28;20049;-61
2024/03/05 07:08:56;;;;;;;21.83;11.27;;;13.00;99.20;;;;;;4160017;28;20041;-63
2024/03/05 07:10:57;;;;;;;30.77;12.03;;;13.20;99.00;;;;;;4160602;28;20087;-63
2024/03/05 07:12:58;;;;;;;20.40;9.97;;;13.50;98.50;;;;;;4161248;28;20095;-63
2024/03/05 07:15:01;;;;;;;21.73;10.00;;;13.90;98.30;;;;;;4163247;28;20099;-61
2024/03/05 07:17:02;;;;;;;24.20;9.57;;;14.30;97.60;;;;;;4162649;28;20124;-63
2024/03/05 07:19:03;;;;;;;20.83;9.17;;;14.80;97.00;;;;;;4163179;28;20033;-63
2024/03/05 07:21:07;;;;;;;19.20;8.53;;;14.80;96.60;;;;;;4163610;28;20095;-60
2024/03/05 07:23:08;;;;;;;18.23;8.53;;;14.70;96.00;;;;;;4162588;28;20045;-62
2024/03/05 07:25:10;;;;;;;14.07;6.90;;;14.40;96.10;;;;;;4164557;28;20033;-63
2024/03/05 07:27:11;;;;;;;12.90;7.87;;;14.30;96.10;;;;;;4162826;28;20041;-63
2024/03/05 07:29:13;;;;;;;10.83;6.27;;;14.30;96.20;;;;;;4164084;28;20025;-63
2024/03/05 07:31:15;;;;;;;9.97;5.80;;;14.00;95.80;;;;;;4162205;28;20038;-61
2024/03/05 07:33:17;;;;;;;11.50;5.40;;;13.90;95.90;;;;;;4163167;28;20528;-63
2024/03/05 07:35:19;;;;;;;11.50;5.00;;;13.30;96.00;;;;;;4162099;28;20092;-61
2024/03/05 07:37:20;;;;;;;11.27;5.30;;;13.00;96.30;;;;;;4164063;28;20072;-62
2024/03/05 07:39:24;;;;;;;11.80;5.20;;;13.40;96.60;;;;;;4162180;28;20060;-61
2024/03/05 07:41:27;;;;;;;9.10;4.57;;;13.80;96.50;;;;;;4145791;28;20088;-63
2024/03/05 07:43:28;;;;;;;6.40;4.50;;;14.40;95.60;;;;;;4162498;28;20437;-57
2024/03/05 07:45:31;;;;;;;6.27;4.90;;;14.90;95.10;;;;;;4163486;28;20025;-63
2024/03/05 07:47:32;;;;;;;11.27;5.33;;;14.80;94.30;;;;;;4162620;28;20080;-63
2024/03/05 07:49:34;;;;;;;8.85;5.03;;;15.00;94.50;;;;;;4162615;28;20045;-62
2024/03/05 07:51:35;;;;;;;9.32;5.85;;;15.10;94.10;;;;;;4163364;28;20034;-63
2024/03/05 07:53:36;;;;;;;10.23;5.00;;;14.80;94.10;;;;;;4144341;28;20072;-63
2024/03/05 07:55:39;;;;;;;8.63;5.72;;;14.80;94.00;;;;;;4163813;28;20052;-62
2024/03/05 07:57:41;;;;;;;10.25;5.35;;;14.30;94.00;;;;;;4162026;28;20041;-63
2024/03/05 07:59:43;;;;;;;11.77;6.45;;;13.80;94.20;;;;;;4163678;28;20033;-60
2024/03/05 08:01:45;;;;;;;9.35;5.47;;;13.90;94.60;;;;;;4161858;28;20044;-61
2024/03/05 08:03:46;;;;;;;7.10;5.23;;;14.00;94.30;;;;;;4163146;28;20050;-62
2024/03/05 08:05:50;;;;;;;10.18;5.22;;;13.90;94.30;;;;;;4162481;28;20397;-63
2024/03/05 08:07:57;;;;;;;9.20;5.10;;;14.20;94.20;;;;;;4162969;28;20084;-62
2024/03/05 08:09:58;;;;;;;9.63;5.63;;;14.50;93.90;;;;;;4161511;28;20489;-56
2024/03/05 08:12:00;;;;;;;9.68;5.22;;;14.80;93.60;;;;;;4162783;28;20490;-60
2024/03/05 08:14:03;;;;;;;10.25;5.00;;;14.80;93.30;;;;;;4162057;28;20083;-63
2024/03/05 08:16:05;;;;;;;10.73;5.55;;;14.70;93.30;;;;;;4163170;28;20037;-54
2024/03/05 08:18:09;;;;;;;13.85;5.88;;;14.70;93.20;;;;;;4162319;28;20029;-58
2024/03/05 08:20:25;;;;;;;10.38;6.18;;;14.90;93.10;;;;;;4162165;28;20037;-61
2024/03/05 08:22:27;;;;;;;9.82;6.03;;;15.00;92.30;;;;;;4162170;28;20103;-58
2024/03/05 08:24:28;;;;;;;16.50;7.18;;;14.60;92.80;;;;;;4161461;28;20379;-63
2024/03/05 08:26:29;;;;;;;10.88;6.65;;;14.10;93.10;;;;;;4162236;28;20119;-59
2024/03/05 08:28:31;;;;;;;19.73;7.73;;;13.60;93.50;;;;;;4161727;28;20057;-64
2024/03/05 08:30:32;;;;;;;12.77;7.53;;;13.30;93.90;;;;;;4162242;28;20107;-64
2024/03/05 08:32:38;;;;;;;14.40;6.75;;;13.20;94.30;;;;;;4161902;28;20029;-64
2024/03/05 08:34:39;;;;;;;18.27;8.77;;;13.30;94.30;;;;;;4162007;28;20041;-64
2024/03/05 08:36:41;;;;;;;15.47;7.63;;;13.60;94.20;;;;;;4161247;28;20088;-63
2024/03/05 08:38:45;;;;;;;17.27;7.97;;;14.00;93.90;;;;;;4163075;28;20432;-64
2024/03/05 08:40:48;;;;;;;18.77;8.53;;;14.20;93.60;;;;;;4161574;28;20025;-59
2024/03/05 08:42:51;;;;;;;15.95;8.00;;;14.00;93.70;;;;;;4162730;28;20136;-62
2024/03/05 08:44:53;;;;;;;16.90;8.40;;;14.00;93.70;;;;;;4161019;28;20037;-60
2024/03/05 08:46:54;;;;;;;22.27;9.43;;;14.00;93.70;;;;;;4162253;28;21059;-62
2024/03/05 08:48:55;;;;;;;15.10;9.00;;;14.20;93.60;;;;;;4161773;28;20508;-62
2024/03/05 08:50:58;;;;;;;19.47;9.73;;;14.60;93.30;;;;;;4144485;28;20042;-63
2024/03/05 08:53:00;;;;;;;21.55;9.98;;;15.10;93.10;;;;;;4161772;28;20034;-64
2024/03/05 08:55:01;;;;;;;16.52;9.13;;;14.90;93.00;;;;;;4162831;28;20087;-59
2024/03/05 08:57:04;;;;;;;16.20;8.87;;;14.70;92.60;;;;;;4162066;28;20381;-65
2024/03/05 08:59:06;;;;;;;15.63;9.57;;;14.30;93.20;;;;;;4162000;28;20041;-63
2024/03/05 09:01:10;;;;;;;14.48;9.25;;;13.80;93.70;;;;;;4161333;28;20091;-63
2024/03/05 09:03:14;;;;;;;17.13;8.73;;;13.50;94.00;;;;;;4161638;28;20049;-59
2024/03/05 09:05:15;;;;;;;20.60;10.83;;;13.30;94.20;;;;;;4161813;28;20037;-61
2024/03/05 09:07:17;;;;;;;18.60;10.27;;;13.20;94.50;;;;;;4161075;28;20037;-63
2024/03/05 09:09:19;;;;;;;18.90;8.60;;;13.20;94.80;;;;;;4161471;28;20050;-62
2024/03/05 09:11:20;;;;;;;17.17;9.57;;;13.20;95.10;;;;;;4161361;28;20091;-64
2024/03/05 09:13:21;;;;;;;18.97;9.47;;;13.30;94.70;;;;;;4162659;28;20444;-64
2024/03/05 09:15:23;;;;;;;22.73;9.03;;;13.40;94.60;;;;;;4160663;28;20049;-65
2024/03/05 09:17:25;;;;;;;15.60;8.93;;;13.40;94.60;;;;;;4162544;28;20421;-62
2024/03/05 09:19:27;;;;;;;15.93;8.37;;;13.40;94.60;;;;;;4160817;28;20037;-63
2024/03/05 09:21:28;;;;;;;18.10;7.73;;;13.40;94.60;;;;;;4162290;28;20421;-62
2024/03/05 09:23:29;;;;;;;17.93;9.40;;;13.50;94.40;;;;;;4160794;28;20029;-61
2024/03/05 09:25:32;;;;;;;14.60;7.50;;;13.50;94.40;;;;;;4162896;28;20037;-64
2024/03/05 09:27:35;;;;;;;11.80;7.93;;;13.50;94.40;;;;;;4161506;28;20083;-60
2024/03/05 09:29:37;;;;;;;14.40;7.77;;;13.90;94.30;;;;;;4162071;28;20473;-64
2024/03/05 09:31:38;;;;;;;14.87;8.13;;;14.00;94.10;;;;;;4161171;28;20075;-53
2024/03/05 09:33:39;;;;;;;12.63;8.27;;;13.90;94.00;;;;;;4160780;28;20087;-57
2024/03/05 09:35:41;;;;;;;12.23;9.00;;;13.80;94.30;;;;;;4161061;28;20087;-64
2024/03/05 09:37:51;;;;;;;17.37;9.50;;;13.90;94.40;;;;;;4161126;28;20470;-64
2024/03/05 09:39:54;;;;;;;14.48;9.20;;;14.10;94.20;;;;;;4160966;28;20114;-62
2024/03/05 09:41:56;;;;;;;13.80;8.43;;;14.20;94.00;;;;;;4160621;28;20095;-63
2024/03/05 09:43:57;;;;;;;16.17;8.77;;;14.10;94.00;;;;;;4161914;28;20068;-64
2024/03/05 09:46:04;;;;;;;15.50;8.97;;;14.10;94.10;;;;;;4160335;28;20444;-63
2024/03/05 09:48:08;;;;;;;14.33;7.77;;;14.10;94.00;;;;;;4161065;28;20568;-64
2024/03/05 09:50:12;;;;;;;17.60;8.47;;;14.10;93.90;;;;;;4160343;28;20053;-65
2024/03/05 09:52:14;;;;;;;13.40;7.57;;;14.40;93.70;;;;;;4162076;28;20029;-64
2024/03/05 09:54:15;;;;;;;16.25;8.23;;;14.20;93.50;;;;;;4160932;28;20129;-61
2024/03/05 09:56:16;;;;;;;21.90;8.23;;;14.10;93.60;;;;;;4161508;28;20476;-61
2024/03/05 09:58:34;;;;;;;11.43;7.82;;;14.10;93.90;;;;;;4160201;28;20041;-63
2024/03/05 10:00:37;;;;;;;17.35;8.88;;;14.30;93.80;;;;;;4161186;28;20033;-62
2024/03/05 10:02:38;;;;;;;15.37;8.00;;;14.40;93.70;;;;;;4160017;28;20481;-62
2024/03/05 10:04:41;;;;;;;14.65;7.80;;;14.60;93.50;;;;;;4161081;28;20111;-62
2024/03/05 10:06:49;;;;;;;16.33;7.25;;;14.80;93.50;;;;;;4160365;28;20099;-63
2024/03/05 10:08:50;;;;;;;13.27;6.45;;;14.90;93.00;;;;;;4161065;28;20096;-62
2024/03/05 10:11:02;;;;;;;12.38;6.20;;;15.10;93.00;;;;;;4159850;28;20029;-63
2024/03/05 10:13:05;;;;;;;13.05;7.30;;;15.20;92.50;;;;;;4161458;28;20178;-61
2024/03/05 10:15:20;;;;;;;10.43;6.65;;;15.20;92.60;;;;;;4159702;28;20076;-63
2024/03/05 10:17:22;;;;;;;11.30;6.60;;;15.00;92.60;;;;;;4161334;28;20025;-61
2024/03/05 10:19:23;;;;;;;12.00;7.10;;;14.90;92.90;;;;;;4160573;28;20075;-64
2024/03/05 10:21:25;;;;;;;13.60;6.22;;;15.00;93.00;;;;;;4161457;28;20121;-64
2024/03/05 10:23:26;;;;;;;11.98;7.00;;;14.90;92.80;;;;;;4160150;28;20437;-63
2024/03/05 10:25:29;;;;;;;10.90;6.47;;;14.80;92.80;;;;;;4161405;28;20079;-64
2024/03/05 10:27:30;;;;;;;11.57;6.65;;;14.80;92.80;;;;;;4128336;28;20038;-64
2024/03/05 10:29:35;;;;;;;10.38;6.00;;;14.80;92.80;;;;;;4127749;28;20093;-63
2024/03/05 10:31:42;;;;;;;10.48;6.07;;;14.90;92.60;;;;;;4128484;28;20069;-59